Terminal Aerodrome Forecast
Issued by NWS

Home | Current Version | Previous Version | Graphics & Text | Print | Product List | Glossary On
Versions: 1 2 3 4 5 6 7 8 9 10 11 12
000
FTUS43 KGRB 032331
TAFATW
TAF
KATW 032331Z 0400/0424 22005KT P6SM SCT050 BKN100
     FM040700 26003KT P6SM SCT040 SCT120
     FM041500 05004KT P6SM SCT040
     FM041900 11007KT P6SM SCT090=

USA.gov is the U.S. government's official web portal to all federal, state and local government web resources and services.